Time,TemperatureF,DewpointF,PressureIn,WindDirection,WindDirectionDegrees,WindSpeedMPH,WindSpeedGustMPH,Humidity,HourlyPrecipIn,Conditions,Clouds,dailyrainin,SoftwareType,DateUTC
2013-05-01 03:01:00,58.1,53.9,30.03,ENE,72,1.0,2.0,86,0.00,,,0.00,Wunderground v.1.15,2013-05-01 08:01:00,
2013-05-01 03:03:00,58.1,53.9,30.03,ENE,72,1.0,2.0,86,0.00,,,0.00,Wunderground v.1.15,2013-05-01 08:03:00,
2013-05-01 03:07:00,58.1,53.9,30.03,ENE,72,1.0,2.0,86,0.00,,,0.00,Wunderground v.1.15,2013-05-01 08:07:00,
2013-05-01 03:08:00,58.1,53.9,30.03,ENE,72,1.0,2.0,86,0.00,,,0.00,Wunderground v.1.15,2013-05-01 08:08:00,
2013-05-01 03:14:00,58.2,53.7,30.03,ENE,72,1.0,1.0,85,0.00,,,0.00,Wunderground v.1.15,2013-05-01 08:14:00,
2013-05-01 03:20:00,58.2,53.7,30.03,ENE,72,1.0,1.0,85,0.00,,,0.00,Wunderground v.1.15,2013-05-01 08:20:00,
2013-05-01 03:25:00,58.3,53.8,30.03,ENE,72,1.0,1.0,85,0.00,,,0.00,Wunderground v.1.15,2013-05-01 08:25:00,
2013-05-01 13:03:00,79.5,62.9,30.10,ENE,62,2.0,2.0,57,0.00,,,0.00,Wunderground v.1.15,2013-05-01 18:03:00,
2013-05-01 13:09:00,79.1,62.6,30.10,SSE,164,2.0,2.0,57,0.00,,,0.00,Wunderground v.1.15,2013-05-01 18:09:00,
2013-05-01 13:14:00,79.1,64.0,30.10,East,82,2.0,3.0,60,0.00,,,0.00,Wunderground v.1.15,2013-05-01 18:14:00,
2013-05-01 13:20:00,79.4,61.8,30.10,ENE,61,2.0,3.0,55,0.00,,,0.00,Wunderground v.1.15,2013-05-01 18:20:00,
2013-05-01 13:26:00,79.4,62.3,30.11,ENE,58,2.0,5.0,56,0.00,,,0.00,Wunderground v.1.15,2013-05-01 18:26:00,
2013-05-01 13:31:00,79.6,64.0,30.10,SSW,207,2.0,2.0,59,0.00,,,0.00,Wunderground v.1.15,2013-05-01 18:31:00,
2013-05-01 13:36:00,79.7,65.5,30.10,ENE,74,3.0,4.0,62,0.00,,,0.00,Wunderground v.1.15,2013-05-01 18:36:00,
2013-05-01 13:41:00,79.3,62.2,30.10,East,86,4.0,5.0,56,0.00,,,0.00,Wunderground v.1.15,2013-05-01 18:41:00,
2013-05-01 13:48:00,79.0,64.9,30.10,East,82,3.0,6.0,62,0.00,,,0.00,Wunderground v.1.15,2013-05-01 18:48:00,
2013-05-01 13:53:00,78.2,62.7,30.10,East,86,3.0,4.0,59,0.00,,,0.00,Wunderground v.1.15,2013-05-01 18:53:00,
2013-05-01 14:00:00,78.3,63.7,30.10,ENE,72,3.0,3.0,61,0.00,,,0.00,Wunderground v.1.15,2013-05-01 19:00:00,
2013-05-01 15:55:00,77.1,62.1,30.08,ESE,108,3.0,7.0,60,0.00,,,0.00,Wunderground v.1.15,2013-05-01 20:55:00,
2013-05-01 16:00:00,77.8,62.8,30.08,East,86,2.0,2.0,60,0.00,,,0.00,Wunderground v.1.15,2013-05-01 21:00:00,
2013-05-01 16:06:00,77.7,62.7,30.08,East,81,2.0,2.0,60,0.00,,,0.00,Wunderground v.1.15,2013-05-01 21:06:00,
2013-05-01 16:11:00,77.3,62.8,30.08,ENE,74,2.0,2.0,61,0.00,,,0.00,Wunderground v.1.15,2013-05-01 21:11:00,
2013-05-01 16:16:00,77.0,62.5,30.08,ENE,59,3.0,3.0,61,0.00,,,0.00,Wunderground v.1.15,2013-05-01 21:16:00,
2013-05-01 16:22:00,77.2,61.3,30.08,East,79,3.0,4.0,58,0.00,,,0.00,Wunderground v.1.15,2013-05-01 21:22:00,
2013-05-01 16:27:00,77.4,62.9,30.08,ENE,67,2.0,4.0,61,0.00,,,0.00,Wunderground v.1.15,2013-05-01 21:27:00,
2013-05-01 16:32:00,77.9,60.9,30.08,ENE,73,1.0,2.0,56,0.00,,,0.00,Wunderground v.1.15,2013-05-01 21:32:00,
2013-05-01 16:38:00,78.6,61.6,30.08,NE,50,2.0,4.0,56,0.00,,,0.00,Wunderground v.1.15,2013-05-01 21:38:00,
2013-05-01 16:43:00,78.7,62.2,30.08,ENE,59,3.0,3.0,57,0.00,,,0.00,Wunderground v.1.15,2013-05-01 21:43:00,
2013-05-01 16:48:00,78.9,62.4,30.08,ENE,78,4.0,5.0,57,0.00,,,0.00,Wunderground v.1.15,2013-05-01 21:48:00,
2013-05-01 16:54:00,78.7,62.7,30.08,ENE,69,3.0,3.0,58,0.00,,,0.00,Wunderground v.1.15,2013-05-01 21:54:00,
2013-05-01 16:59:00,78.6,63.6,30.08,East,88,3.0,5.0,60,0.00,,,0.00,Wunderground v.1.15,2013-05-01 21:59:00,
2013-05-01 17:09:00,78.2,63.2,30.08,ENE,73,3.0,7.0,60,0.00,,,0.00,Wunderground v.1.15,2013-05-01 22:09:00,
2013-05-01 17:14:00,77.8,62.8,30.08,ENE,67,3.0,3.0,60,0.00,,,0.00,Wunderground v.1.15,2013-05-01 22:14:00,
2013-05-01 17:19:00,77.5,61.1,30.08,ENE,75,3.0,3.0,57,0.00,,,0.00,Wunderground v.1.15,2013-05-01 22:19:00,
2013-05-01 17:24:00,77.0,62.5,30.08,ENE,78,3.0,3.0,61,0.00,,,0.00,Wunderground v.1.15,2013-05-01 22:24:00,
2013-05-01 17:29:00,77.0,62.5,30.08,ENE,65,3.0,5.0,61,0.00,,,0.00,Wunderground v.1.15,2013-05-01 22:29:00,
2013-05-01 17:34:00,77.0,62.5,30.08,ENE,69,3.0,4.0,61,0.00,,,0.00,Wunderground v.1.15,2013-05-01 22:34:00,
2013-05-01 17:39:00,76.9,61.5,30.08,ENE,68,4.0,7.0,59,0.00,,,0.00,Wunderground v.1.15,2013-05-01 22:39:00,
2013-05-01 17:44:00,76.9,61.5,30.08,ENE,61,4.0,6.0,59,0.00,,,0.00,Wunderground v.1.15,2013-05-01 22:44:00,
2013-05-01 17:50:00,76.5,61.6,30.08,East,98,5.0,6.0,60,0.00,,,0.00,Wunderground v.1.15,2013-05-01 22:50:00,
2013-05-01 17:55:00,76.0,61.1,30.08,ENE,69,5.0,6.0,60,0.00,,,0.00,Wunderground v.1.15,2013-05-01 22:55:00,
2013-05-01 18:00:00,75.7,61.8,30.08,ENE,65,4.0,4.0,62,0.00,,,0.00,Wunderground v.1.15,2013-05-01 23:00:00,
2013-05-01 18:06:00,75.5,61.1,30.08,ENE,77,4.0,8.0,61,0.00,,,0.00,Wunderground v.1.15,2013-05-01 23:06:00,
2013-05-01 18:11:00,75.4,60.5,30.07,ENE,70,4.0,5.0,60,0.00,,,0.00,Wunderground v.1.15,2013-05-01 23:11:00,
2013-05-01 18:16:00,75.3,61.4,30.07,East,82,3.0,5.0,62,0.00,,,0.00,Wunderground v.1.15,2013-05-01 23:16:00,
2013-05-01 18:22:00,74.9,62.3,30.07,ENE,74,2.0,2.0,65,0.00,,,0.00,Wunderground v.1.15,2013-05-01 23:22:00,
2013-05-01 18:27:00,74.4,62.3,30.07,ENE,74,2.0,3.0,66,0.00,,,0.00,Wunderground v.1.15,2013-05-01 23:27:00,
2013-05-01 18:33:00,74.1,62.0,30.07,ENE,75,2.0,3.0,66,0.00,,,0.00,Wunderground v.1.15,2013-05-01 23:33:00,
2013-05-01 18:38:00,74.0,61.9,30.07,ENE,73,2.0,3.0,66,0.00,,,0.00,Wunderground v.1.15,2013-05-01 23:38:00,
2013-05-01 18:43:00,73.7,61.6,30.07,ENE,66,1.0,2.0,66,0.00,,,0.00,Wunderground v.1.15,2013-05-01 23:43:00,
2013-05-01 18:49:00,73.4,61.8,30.07,ENE,66,1.0,2.0,67,0.00,,,0.00,Wunderground v.1.15,2013-05-01 23:49:00,
2013-05-01 18:54:00,73.1,61.5,30.08,ENE,66,1.0,3.0,67,0.00,,,0.00,Wunderground v.1.15,2013-05-01 23:54:00,
2013-05-01 19:00:00,73.1,61.5,30.08,ENE,67,1.0,1.0,67,0.00,,,0.00,Wunderground v.1.15,2013-05-02 00:00:00,
2013-05-01 19:06:00,73.1,61.5,30.08,ENE,66,1.0,1.0,67,0.00,,,0.00,Wunderground v.1.15,2013-05-02 00:06:00,
2013-05-01 19:12:00,72.8,61.2,30.08,ENE,67,0.0,1.0,67,0.00,,,0.00,Wunderground v.1.15,2013-05-02 00:12:00,
2013-05-01 19:17:00,72.6,61.0,30.08,ENE,67,0.0,1.0,67,0.00,,,0.00,Wunderground v.1.15,2013-05-02 00:17:00,